Time;durP1;ratioP1;P1;durP2;ratioP2;P2;SDS_P1;SDS_P2;PMS_P1;PMS_P2;Temp;Humidity;BMP_temperature;BMP_pressure;BME280_temperature;BME280_humidity;BME280_pressure;Samples;Min_cycle;Max_cycle;Signal;HPM_P1;HPM_P2
2022/07/10 00:00:26;;;;;;;3.90;3.17;;;;;;;21.46;53.87;100568.81;5024064;28;20382;-77
2022/07/10 00:02:53;;;;;;;6.90;3.42;;;;;;;21.44;53.90;100565.47;4999482;28;20056;-77
2022/07/10 00:05:20;;;;;;;5.00;3.75;;;;;;;21.41;54.00;100571.25;5042926;28;20095;-77
2022/07/10 00:07:47;;;;;;;3.70;3.15;;;;;;;21.39;54.22;100556.25;4995376;28;21159;-79
2022/07/10 00:10:15;;;;;;;3.63;3.33;;;;;;;21.38;54.19;100562.66;5024685;28;20071;-77
2022/07/10 00:12:42;;;;;;;4.43;3.75;;;;;;;21.32;54.57;100564.25;5021989;28;20052;-77
2022/07/10 00:15:09;;;;;;;3.95;3.55;;;;;;;21.32;54.43;100568.81;4999433;28;20082;-77
2022/07/10 00:17:36;;;;;;;4.95;4.40;;;;;;;21.29;54.26;100563.78;5024429;28;20558;-77
2022/07/10 00:20:03;;;;;;;4.53;3.72;;;;;;;21.25;54.79;100568.75;5048877;28;20044;-77
2022/07/10 00:22:30;;;;;;;4.45;3.63;;;;;;;21.22;54.74;100564.56;5019915;28;20520;-78
2022/07/10 00:24:57;;;;;;;4.00;3.45;;;;;;;21.20;54.67;100566.59;5009173;28;20132;-77
2022/07/10 00:27:23;;;;;;;4.40;3.83;;;;;;;21.18;54.66;100559.69;5021656;28;20099;-77
2022/07/10 00:29:50;;;;;;;5.35;3.45;;;;;;;21.19;54.53;100564.06;5022902;28;20756;-77
2022/07/10 00:32:17;;;;;;;5.45;3.67;;;;;;;21.15;54.58;100560.09;4992251;28;20111;-77
2022/07/10 00:34:43;;;;;;;4.40;4.00;;;;;;;21.12;54.89;100563.16;5039881;28;20040;-78
2022/07/10 00:37:10;;;;;;;4.30;3.90;;;;;;;21.07;54.77;100571.00;5055888;28;20521;-78
2022/07/10 00:39:37;;;;;;;5.47;4.15;;;;;;;21.01;54.86;100568.00;5044820;28;20110;-78
2022/07/10 00:42:12;;;;;;;5.22;3.50;;;;;;;20.97;55.38;100568.56;5023090;28;20072;-82
2022/07/10 00:44:39;;;;;;;3.72;3.42;;;;;;;20.94;54.90;100564.38;5004779;28;20042;-83
2022/07/10 00:47:08;;;;;;;4.32;3.92;;;;;;;20.93;54.70;100559.16;5016618;28;20053;-84
2022/07/10 00:49:36;;;;;;;5.05;3.58;;;;;;;20.88;54.94;100562.41;4995974;28;20457;-77
2022/07/10 00:52:05;;;;;;;5.63;3.83;;;;;;;20.84;55.10;100560.25;5029604;28;20492;-77
2022/07/10 00:54:34;;;;;;;4.28;3.88;;;;;;;20.83;55.22;100564.81;4995742;28;20038;-77
2022/07/10 00:57:05;;;;;;;5.80;4.47;;;;;;;20.79;55.45;100558.97;5026168;28;20640;-77
2022/07/10 00:59:32;;;;;;;4.40;4.00;;;;;;;20.80;55.17;100565.19;5011154;28;20037;-77
2022/07/10 01:01:58;;;;;;;4.00;3.60;;;;;;;20.84;54.97;100560.25;5057653;28;20041;-77
2022/07/10 01:04:25;;;;;;;4.07;3.45;;;;;;;20.79;54.90;100558.13;5034274;28;20117;-77
2022/07/10 01:06:52;;;;;;;4.00;3.60;;;;;;;20.78;54.97;100554.56;5020992;28;20037;-77
2022/07/10 01:09:19;;;;;;;3.67;3.38;;;;;;;20.77;55.18;100554.75;5015728;28;20400;-77
2022/07/10 01:11:46;;;;;;;3.95;3.55;;;;;;;20.76;55.00;100561.16;5028477;28;20094;-77
2022/07/10 01:14:14;;;;;;;5.13;3.80;;;;;;;20.75;54.96;100548.72;5012418;28;20040;-77
2022/07/10 01:16:41;;;;;;;5.35;3.78;;;;;;;20.74;55.14;100552.44;5013577;28;20397;-82
2022/07/10 01:19:08;;;;;;;4.82;3.80;;;;;;;20.73;55.35;100553.44;5026911;28;20500;-82
2022/07/10 01:21:36;;;;;;;4.50;4.10;;;;;;;20.71;55.33;100552.78;5017699;28;20037;-82
2022/07/10 01:24:08;;;;;;;5.28;4.20;;;;;;;20.69;55.43;100560.25;5023427;28;20061;-83
2022/07/10 01:26:36;;;;;;;4.55;3.85;;;;;;;20.64;55.44;100549.16;5025874;28;20179;-77
2022/07/10 01:29:05;;;;;;;4.82;4.28;;;;;;;20.59;55.68;100547.84;5038608;28;20041;-77
2022/07/10 01:31:33;;;;;;;5.10;3.78;;;;;;;20.59;55.78;100555.94;5008028;28;20115;-77
2022/07/10 01:34:00;;;;;;;5.22;4.10;;;;;;;20.58;55.67;100546.19;5018953;28;20041;-77
2022/07/10 01:36:28;;;;;;;4.07;3.55;;;;;;;20.56;55.58;100553.63;4996258;28;20050;-77
2022/07/10 01:38:56;;;;;;;4.03;3.63;;;;;;;20.53;55.84;100555.78;5012448;28;20493;-83
2022/07/10 01:41:23;;;;;;;4.10;3.70;;;;;;;20.54;55.83;100557.50;5026714;28;20044;-82
2022/07/10 01:43:51;;;;;;;6.40;4.18;;;;;;;20.54;55.69;100561.06;5027728;28;20060;-82
2022/07/10 01:46:18;;;;;;;4.90;3.78;;;;;;;20.53;55.77;100553.97;5025777;28;20120;-82
2022/07/10 01:48:45;;;;;;;4.97;4.40;;;;;;;20.52;55.74;100560.38;5022969;28;20045;-76
2022/07/10 01:51:12;;;;;;;4.15;3.80;;;;;;;20.50;55.73;100558.88;4990007;28;20045;-77
2022/07/10 01:53:39;;;;;;;5.32;4.30;;;;;;;20.51;55.70;100565.97;5056067;28;20041;-76
2022/07/10 01:56:09;;;;;;;4.53;4.00;;;;;;;20.47;55.82;100567.34;5006235;28;20465;-76
2022/07/10 01:58:36;;;;;;;5.05;4.22;;;;;;;20.46;55.81;100555.72;5009091;28;20111;-77
2022/07/10 02:01:04;;;;;;;4.80;4.07;;;;;;;20.44;55.90;100556.91;5017577;28;20100;-77
2022/07/10 02:06:16;;;;;;;5.18;3.95;;;;;;;20.42;55.91;100557.09;4994573;28;20057;-81
2022/07/10 02:08:43;;;;;;;4.57;4.10;;;;;;;20.39;55.94;100552.88;5022427;28;20041;-82
2022/07/10 02:11:10;;;;;;;4.22;3.90;;;;;;;20.41;55.87;100565.38;5012451;28;20057;-82
2022/07/10 02:13:36;;;;;;;5.65;4.13;;;;;;;20.43;56.12;100561.47;5021331;28;20052;-81
2022/07/10 02:16:03;;;;;;;5.15;3.67;;;;;;;20.41;56.06;100559.97;5024920;28;20767;-82
2022/07/10 02:18:32;;;;;;;4.45;3.88;;;;;;;20.38;55.86;100564.72;5020723;28;20047;-83
2022/07/10 02:21:00;;;;;;;6.15;4.50;;;;;;;20.39;55.98;100562.84;5023604;28;20370;-82
2022/07/10 02:23:26;;;;;;;6.60;4.07;;;;;;;20.40;55.89;100564.50;5014338;28;20050;-77
2022/07/10 02:25:53;;;;;;;4.35;3.95;;;;;;;20.38;55.84;100561.19;5033887;28;20049;-77
2022/07/10 02:28:20;;;;;;;5.55;4.32;;;;;;;20.38;55.96;100570.09;5028805;28;20205;-77
2022/07/10 02:30:46;;;;;;;5.72;4.10;;;;;;;20.34;56.26;100570.66;5001736;28;20063;-76
2022/07/10 02:33:13;;;;;;;5.60;4.40;;;;;;;20.33;56.09;100575.22;5031745;28;20064;-77
2022/07/10 02:35:40;;;;;;;3.97;3.65;;;;;;;20.33;56.12;100577.91;5012410;28;20045;-82
2022/07/10 02:38:06;;;;;;;5.97;4.03;;;;;;;20.30;56.08;100585.50;5027453;28;20060;-83
2022/07/10 02:40:33;;;;;;;4.80;4.38;;;;;;;20.26;56.20;100581.50;5007213;28;20044;-81
2022/07/10 02:43:01;;;;;;;5.07;3.95;;;;;;;20.23;56.17;100577.31;5034634;28;20088;-81
2022/07/10 02:45:28;;;;;;;4.03;3.63;;;;;;;20.16;56.08;100579.88;5024701;28;20045;-77
2022/07/10 02:47:54;;;;;;;6.28;3.72;;;;;;;20.17;56.11;100584.28;5030187;28;20040;-83
2022/07/10 02:50:21;;;;;;;4.35;3.95;;;;;;;20.12;56.30;100589.38;5027602;28;20114;-83
2022/07/10 02:52:48;;;;;;;5.63;4.22;;;;;;;20.10;56.51;100586.00;5025049;28;20065;-82
2022/07/10 02:55:14;;;;;;;3.95;3.58;;;;;;;20.05;56.56;100587.53;5046098;28;20504;-81
2022/07/10 02:57:41;;;;;;;5.78;4.32;;;;;;;20.05;56.55;100590.22;5026040;28;20044;-80
2022/07/10 03:00:08;;;;;;;4.38;3.67;;;;;;;20.01;56.62;100592.47;5026394;28;20432;-81
2022/07/10 03:02:35;;;;;;;5.10;3.75;;;;;;;19.98;56.70;100595.53;5017222;28;20403;-81
2022/07/10 03:05:02;;;;;;;6.25;4.18;;;;;;;19.99;56.83;100597.19;5007462;28;20049;-81
2022/07/10 03:07:29;;;;;;;6.05;4.22;;;;;;;19.97;56.98;100604.59;5027907;28;20132;-76
2022/07/10 03:09:55;;;;;;;5.13;4.63;;;;;;;19.94;56.95;100596.88;5022407;28;20099;-77
2022/07/10 03:12:22;;;;;;;6.53;4.40;;;;;;;19.97;56.88;100601.06;5016315;28;20056;-77
2022/07/10 03:14:49;;;;;;;4.65;4.15;;;;;;;19.94;56.72;100605.81;5012092;28;20064;-76
2022/07/10 03:17:15;;;;;;;5.15;4.65;;;;;;;19.89;56.89;100593.88;5011146;28;20053;-77
2022/07/10 03:19:42;;;;;;;5.10;4.35;;;;;;;19.90;57.14;100595.56;5017244;28;20049;-79
2022/07/10 03:22:09;;;;;;;5.65;4.32;;;;;;;19.89;57.50;100596.56;5022286;28;20052;-77
2022/07/10 03:24:36;;;;;;;4.57;4.10;;;;;;;19.70;57.81;100592.50;5016687;28;20048;-77
2022/07/10 03:27:02;;;;;;;5.43;4.45;;;;;;;19.67;57.75;100596.38;5033784;28;20393;-77
2022/07/10 03:29:30;;;;;;;6.07;4.30;;;;;;;19.58;58.18;100591.16;5015986;28;20052;-77
2022/07/10 03:31:57;;;;;;;5.20;4.15;;;;;;;19.56;58.27;100596.72;5025040;28;20056;-77
2022/07/10 03:34:24;;;;;;;5.50;4.32;;;;;;;19.53;58.12;100597.06;5000450;28;20053;-77
2022/07/10 03:36:51;;;;;;;7.32;4.30;;;;;;;19.57;58.08;100611.06;5043614;28;20041;-80
2022/07/10 03:39:18;;;;;;;6.15;4.20;;;;;;;19.52;58.38;100606.19;5027224;28;20623;-81
2022/07/10 03:41:45;;;;;;;8.13;4.65;;;;;;;19.50;58.32;100600.97;5024259;28;20053;-82
2022/07/10 03:44:11;;;;;;;7.60;4.43;;;;;;;19.55;58.40;100605.00;5026105;28;20048;-82
2022/07/10 03:46:38;;;;;;;4.63;4.18;;;;;;;19.58;58.43;100607.34;5015605;28;20069;-82
2022/07/10 03:49:05;;;;;;;6.78;4.10;;;;;;;19.60;58.36;100606.13;5024536;28;20557;-81
2022/07/10 03:51:32;;;;;;;5.50;3.83;;;;;;;19.65;58.13;100608.31;5032050;28;20559;-82
2022/07/10 03:53:59;;;;;;;5.18;3.95;;;;;;;19.70;58.70;100605.97;5029642;28;22884;-78
2022/07/10 03:59:11;;;;;;;5.45;4.03;;;;;;;20.37;58.54;100606.19;4968701;28;20473;-81
2022/07/10 04:01:37;;;;;;;4.70;4.30;;;;;;;20.60;57.80;100608.88;5034515;28;20045;-78
2022/07/10 04:04:04;;;;;;;7.75;4.60;;;;;;;20.71;57.00;100604.94;5044962;28;20046;-78
2022/07/10 04:06:31;;;;;;;6.47;4.40;;;;;;;20.72;56.50;100613.84;5035156;28;20044;-78
2022/07/10 04:08:58;;;;;;;4.30;3.88;;;;;;;20.61;56.40;100612.44;5028383;28;20045;-78
2022/07/10 04:11:27;;;;;;;7.80;4.00;;;;;;;20.39;56.22;100616.78;5003741;28;20045;-77
2022/07/10 04:13:53;;;;;;;4.32;3.60;;;;;;;20.26;56.63;100617.41;5029487;28;20045;-78
2022/07/10 04:16:21;;;;;;;4.63;3.92;;;;;;;20.38;56.78;100615.97;5022598;28;20065;-79
2022/07/10 04:18:48;;;;;;;7.45;3.42;;;;;;;20.45;56.70;100624.16;5008425;28;20095;-81
2022/07/10 04:21:15;;;;;;;7.05;3.33;;;;;;;20.64;56.52;100619.34;5025843;28;20779;-81
2022/07/10 04:23:41;;;;;;;7.15;3.53;;;;;;;20.88;55.28;100616.38;5005469;28;20109;-81
2022/07/10 04:26:08;;;;;;;4.95;3.22;;;;;;;20.97;54.18;100620.69;5033880;28;20049;-78
2022/07/10 04:28:35;;;;;;;4.07;2.72;;;;;;;20.66;53.59;100615.44;5021264;28;20056;-78
2022/07/10 04:31:02;;;;;;;5.88;2.80;;;;;;;20.63;54.07;100613.06;5009627;28;20504;-84
2022/07/10 04:33:29;;;;;;;4.13;3.00;;;;;;;20.43;53.90;100610.03;5022254;28;20045;-84
2022/07/10 04:35:55;;;;;;;5.25;3.13;;;;;;;20.39;54.20;100614.94;5024722;28;20048;-83
2022/07/10 04:38:22;;;;;;;7.70;2.67;;;;;;;20.35;54.26;100612.78;5021880;28;20045;-83
2022/07/10 04:40:52;;;;;;;3.80;2.60;;;;;;;20.42;53.37;100618.28;5024519;28;20412;-83
2022/07/10 04:43:18;;;;;;;5.25;2.70;;;;;;;20.46;54.20;100627.72;5025122;28;20493;-84
2022/07/10 04:45:45;;;;;;;3.95;2.75;;;;;;;20.45;53.50;100626.03;5024933;28;20049;-81
2022/07/10 04:48:12;;;;;;;8.48;3.10;;;;;;;20.37;53.28;100624.22;5013527;28;20057;-83
2022/07/10 04:50:39;;;;;;;4.35;2.40;;;;;;;20.36;53.27;100611.78;5023592;28;20038;-82
2022/07/10 04:53:06;;;;;;;6.43;2.88;;;;;;;20.35;53.15;100610.06;5000659;28;20149;-81
2022/07/10 04:55:32;;;;;;;6.53;2.92;;;;;;;20.42;53.03;100612.91;5024885;28;20103;-82
2022/07/10 04:57:59;;;;;;;7.88;2.28;;;;;;;20.45;52.95;100610.66;5010472;28;20046;-77
2022/07/10 05:00:26;;;;;;;4.15;2.42;;;;;;;20.35;52.53;100619.03;5011068;28;20050;-77
2022/07/10 05:02:53;;;;;;;6.05;2.40;;;;;;;20.35;52.84;100621.72;5020286;28;20493;-77
2022/07/10 05:05:20;;;;;;;4.90;2.80;;;;;;;20.11;53.08;100625.41;5017494;28;20052;-81
2022/07/10 05:07:46;;;;;;;3.95;2.33;;;;;;;20.00;52.89;100624.97;5010071;28;20066;-83
2022/07/10 05:10:13;;;;;;;6.30;2.22;;;;;;;19.85;53.50;100630.31;5012132;28;20509;-77
2022/07/10 05:12:40;;;;;;;5.47;2.10;;;;;;;19.67;53.28;100641.34;5025172;28;20477;-77
2022/07/10 05:15:07;;;;;;;6.18;2.13;;;;;;;19.62;53.95;100630.22;5028581;28;20053;-77
2022/07/10 05:17:34;;;;;;;6.38;2.67;;;;;;;19.59;54.01;100628.72;4991289;28;20064;-77
2022/07/10 05:20:01;;;;;;;7.05;2.33;;;;;;;19.56;53.52;100631.75;5016414;28;20151;-77
2022/07/10 05:22:30;;;;;;;5.43;2.20;;;;;;;19.44;53.80;100638.53;5042757;28;20047;-77
2022/07/10 05:24:56;;;;;;;6.65;2.20;;;;;;;19.43;54.05;100640.38;5011290;28;20042;-77
2022/07/10 05:27:24;;;;;;;3.63;2.25;;;;;;;19.39;53.31;100649.84;5019437;28;20053;-77
2022/07/10 05:29:51;;;;;;;3.20;1.92;;;;;;;19.27;53.86;100645.81;5018113;28;20041;-77
2022/07/10 05:32:17;;;;;;;5.15;2.00;;;;;;;19.30;54.00;100654.38;5023460;28;20049;-77
2022/07/10 05:34:44;;;;;;;6.53;2.22;;;;;;;19.25;53.62;100658.63;5006919;28;20041;-77
2022/07/10 05:37:11;;;;;;;5.18;2.20;;;;;;;19.22;53.61;100659.81;5022086;28;20045;-78
2022/07/10 05:39:37;;;;;;;3.47;2.42;;;;;;;19.29;53.76;100666.19;5028040;28;20076;-77
2022/07/10 05:42:04;;;;;;;8.05;2.05;;;;;;;19.30;53.38;100667.03;5025316;28;20134;-81
2022/07/10 05:44:33;;;;;;;6.10;2.10;;;;;;;19.18;53.20;100671.91;5017960;28;20041;-82
2022/07/10 05:47:00;;;;;;;5.28;2.50;;;;;;;19.09;53.56;100670.28;5010080;28;20042;-76
2022/07/10 05:49:31;;;;;;;2.42;1.67;;;;;;;19.01;53.21;100664.91;5056651;28;20037;-77
2022/07/10 05:51:58;;;;;;;6.55;1.92;;;;;;;19.04;53.09;100664.56;5030989;28;20041;-77
2022/07/10 05:54:25;;;;;;;5.95;1.83;;;;;;;19.04;52.90;100670.78;5023729;28;20099;-77
2022/07/10 05:56:52;;;;;;;8.77;2.72;;;;;;;19.14;53.06;100673.28;5032268;28;20048;-77
2022/07/10 05:59:19;;;;;;;5.78;1.60;;;;;;;19.19;53.10;100681.69;5023114;28;20107;-77
2022/07/10 06:01:45;;;;;;;8.02;2.00;;;;;;;19.19;52.94;100676.31;5039488;28;20120;-78
2022/07/10 06:04:12;;;;;;;5.18;2.13;;;;;;;18.96;53.45;100689.63;5029662;28;20056;-76
2022/07/10 06:06:39;;;;;;;4.80;2.10;;;;;;;19.11;53.26;100678.16;5029743;28;20048;-77
2022/07/10 06:09:06;;;;;;;4.43;2.05;;;;;;;19.05;53.10;100671.59;5055139;28;20057;-77
2022/07/10 06:11:33;;;;;;;4.55;1.67;;;;;;;18.95;52.99;100677.16;5011556;28;20049;-77
2022/07/10 06:14:01;;;;;;;5.03;1.80;;;;;;;18.84;52.91;100682.91;5032240;28;20051;-77
2022/07/10 06:16:27;;;;;;;4.07;1.77;;;;;;;18.68;53.36;100678.34;5034842;28;20041;-77
2022/07/10 06:18:54;;;;;;;3.55;1.50;;;;;;;18.64;53.14;100683.19;5054297;28;20079;-76
2022/07/10 06:21:22;;;;;;;6.43;2.10;;;;;;;18.65;52.95;100686.75;5047837;28;20075;-77
2022/07/10 06:23:50;;;;;;;4.28;1.52;;;;;;;18.70;53.15;100686.22;5046990;28;20042;-77
2022/07/10 06:26:16;;;;;;;2.80;1.40;;;;;;;18.96;52.43;100686.94;5022136;28;20042;-76
2022/07/10 06:28:43;;;;;;;5.38;1.50;;;;;;;18.98;52.22;100689.44;5004473;28;20045;-77
2022/07/10 06:31:10;;;;;;;6.13;1.63;;;;;;;18.86;51.88;100679.03;5032176;28;20045;-77
2022/07/10 06:33:36;;;;;;;5.88;1.40;;;;;;;18.83;51.70;100686.63;5013955;28;20041;-77
2022/07/10 06:36:04;;;;;;;5.10;1.67;;;;;;;18.89;51.81;100687.78;5040980;28;20380;-77
2022/07/10 06:38:30;;;;;;;3.55;1.45;;;;;;;18.82;51.49;100685.75;5016562;28;20045;-77
2022/07/10 06:40:59;;;;;;;5.13;1.70;;;;;;;18.77;51.22;100690.78;5028994;28;20053;-77
2022/07/10 06:43:26;;;;;;;5.13;1.50;;;;;;;18.87;51.20;100699.53;5019022;28;20041;-77
2022/07/10 06:45:55;;;;;;;3.75;1.45;;;;;;;18.71;50.41;100691.44;5051295;28;20056;-77
2022/07/10 06:48:22;;;;;;;3.42;1.58;;;;;;;18.63;51.33;100688.75;5033008;28;20049;-77
2022/07/10 06:50:49;;;;;;;6.65;1.67;;;;;;;18.64;51.38;100695.81;5048084;28;20410;-76
2022/07/10 06:53:16;;;;;;;4.43;1.88;;;;;;;18.61;50.98;100707.75;5024286;28;21759;-76
2022/07/10 06:56:08;;;;;;;3.42;1.42;;;;;;;18.70;50.63;100691.59;5033732;28;20036;-77
2022/07/10 06:58:35;;;;;;;7.83;1.47;;;;;;;18.71;50.74;100691.44;5015143;28;20055;-77
2022/07/10 07:01:28;;;;;;;4.20;1.60;;;;;;;18.51;49.68;100699.00;5019428;28;20434;-78
2022/07/10 07:03:55;;;;;;;2.05;1.33;;;;;;;18.73;50.14;100691.28;5011907;28;20044;-76
2022/07/10 07:06:22;;;;;;;3.97;1.23;;;;;;;18.76;49.75;100689.13;5053657;28;20049;-79
2022/07/10 07:08:48;;;;;;;3.35;1.25;;;;;;;18.84;49.95;100699.06;5029642;28;20096;-77
2022/07/10 07:11:45;;;;;;;4.28;1.50;;;;;;;18.77;48.43;100698.03;5033964;28;20055;-77
2022/07/10 07:14:13;;;;;;;4.05;1.15;;;;;;;18.68;47.49;100694.47;4984831;28;20123;-77
2022/07/10 07:17:08;;;;;;;3.78;1.10;;;;;;;18.57;47.25;100689.41;5009740;28;20119;-79
2022/07/10 07:25:09;;;;;;;3.78;1.10;;;;;;;18.76;47.30;100704.44;5010812;28;20095;-82
2022/07/10 07:27:37;;;;;;;5.28;1.13;;;;;;;18.83;47.39;100694.69;5057135;28;20166;-81
2022/07/10 07:30:10;;;;;;;3.78;1.23;;;;;;;18.76;46.89;100697.19;5009540;28;20491;-81
2022/07/10 07:32:38;;;;;;;5.80;1.50;;;;;;;18.74;47.36;100701.88;4979756;28;20048;-80
2022/07/10 07:35:07;;;;;;;3.08;1.40;;;;;;;18.69;47.05;100698.00;5003383;28;20059;-80
2022/07/10 07:37:41;;;;;;;5.35;1.45;;;;;;;18.80;45.70;100698.56;5006774;28;20048;-80
2022/07/10 07:40:11;;;;;;;2.97;1.00;;;;;;;18.87;46.21;100707.63;5002481;28;20063;-80
2022/07/10 07:42:38;;;;;;;6.22;1.05;;;;;;;18.90;46.26;100713.69;5042234;28;20368;-82
2022/07/10 07:45:05;;;;;;;4.45;1.15;;;;;;;19.04;46.21;100708.47;5029939;28;20078;-83
2022/07/10 07:47:45;;;;;;;2.75;1.00;;;;;;;19.02;44.75;100713.16;5034187;28;20036;-82
2022/07/10 07:50:15;;;;;;;2.63;1.00;;;;;;;19.13;45.45;100708.44;5008309;28;20120;-82
2022/07/10 07:52:42;;;;;;;3.05;1.33;;;;;;;19.17;45.62;100715.19;5035242;28;20045;-83
2022/07/10 07:55:10;;;;;;;3.55;1.15;;;;;;;19.13;45.44;100711.13;5032572;28;20546;-83
2022/07/10 07:57:38;;;;;;;3.47;1.10;;;;;;;19.00;45.50;100715.19;5013122;28;20041;-83
2022/07/10 08:00:06;;;;;;;4.63;1.02;;;;;;;18.91;45.82;100718.06;5018201;28;20049;-81
2022/07/10 08:02:40;;;;;;;3.45;1.10;;;;;;;18.88;45.93;100719.25;5026394;28;21444;-84
2022/07/10 08:05:07;;;;;;;4.70;1.20;;;;;;;18.80;45.85;100717.41;5042741;28;20493;-81
2022/07/10 08:07:42;;;;;;;3.15;1.00;;;;;;;18.80;45.63;100712.00;5042109;28;20054;-83
2022/07/10 08:10:13;;;;;;;1.67;0.98;;;;;;;18.86;45.70;100700.56;5024215;28;20535;-84
2022/07/10 08:12:41;;;;;;;7.22;1.48;;;;;;;18.77;45.98;100709.63;5015496;28;20042;-83
2022/07/10 08:15:09;;;;;;;4.60;1.08;;;;;;;18.84;45.93;100696.34;5028305;28;20049;-84
2022/07/10 08:17:36;;;;;;;3.67;1.20;;;;;;;18.97;46.30;100694.00;5051748;28;20697;-83
2022/07/10 08:20:04;;;;;;;4.72;1.25;;;;;;;18.88;45.81;100703.09;4999694;28;20880;-83
2022/07/10 08:22:30;;;;;;;1.63;1.25;;;;;;;18.86;46.02;100697.03;5003998;28;20104;-83
2022/07/10 08:24:57;;;;;;;6.00;1.30;;;;;;;18.90;46.25;100695.66;4996551;28;20045;-83
2022/07/10 08:27:26;;;;;;;5.78;1.20;;;;;;;18.91;45.75;100686.59;5046662;28;20058;-83
2022/07/10 08:29:53;;;;;;;2.00;1.10;;;;;;;19.00;45.93;100685.56;5031926;28;20099;-83
2022/07/10 08:36:04;;;;;;;;;;;;;;;19.11;44.93;100668.25;4964155;28;20130;-83
2022/07/10 08:38:51;;;;;;;3.55;1.20;;;;;;;19.22;45.43;100686.72;4988139;28;20004;-84
2022/07/10 08:41:24;;;;;;;2.83;1.27;;;;;;;19.25;45.07;100685.53;5033730;28;20052;-84
2022/07/10 08:44:43;;;;;;;4.30;1.30;;;;;;;19.08;44.75;100677.50;5003256;28;20049;-84
2022/07/10 08:47:13;;;;;;;2.05;1.05;;;;;;;19.20;45.88;100682.53;4922463;28;20051;-83
2022/07/10 08:49:46;;;;;;;2.80;1.40;;;;;;;19.14;45.97;100684.06;5012328;28;20045;-83
2022/07/10 08:52:24;;;;;;;5.43;1.20;;;;;;;19.29;45.05;100685.03;4971047;28;20048;-84
2022/07/10 08:54:51;;;;;;;4.38;1.40;;;;;;;19.22;45.20;100691.28;4973583;28;20123;-83
2022/07/10 08:57:18;;;;;;;3.83;1.13;;;;;;;19.15;46.27;100683.03;4994199;28;20040;-83
2022/07/10 08:59:46;;;;;;;2.30;1.25;;;;;;;19.38;46.33;100687.69;5032002;28;20045;-83
2022/07/10 09:02:13;;;;;;;3.17;1.00;;;;;;;19.43;45.99;100683.47;5045974;28;20052;-84
2022/07/10 09:04:40;;;;;;;5.45;1.65;;;;;;;19.30;46.13;100685.88;5029864;28;20143;-84
2022/07/10 09:07:07;;;;;;;2.70;1.48;;;;;;;19.17;45.25;100686.41;5013071;28;20060;-83
2022/07/10 09:09:54;;;;;;;6.72;1.30;;;;;;;19.20;46.04;100680.66;5020180;28;20049;-84
2022/07/10 09:12:22;;;;;;;4.22;1.40;;;;;;;19.20;45.75;100680.66;4989014;28;20566;-84
2022/07/10 09:14:53;;;;;;;3.38;1.30;;;;;;;19.14;44.78;100689.44;5026597;28;20049;-83
2022/07/10 09:17:20;;;;;;;3.65;1.20;;;;;;;19.17;44.78;100677.50;5053343;28;20044;-84
2022/07/10 09:19:48;;;;;;;4.57;1.30;;;;;;;19.22;44.79;100678.66;5040444;28;20049;-82
2022/07/10 09:22:15;;;;;;;5.20;1.40;;;;;;;19.45;45.66;100694.09;5034683;28;20203;-84
2022/07/10 09:24:45;;;;;;;1.90;0.93;;;;;;;19.48;44.77;100689.19;4990645;28;20386;-83
2022/07/10 09:27:14;;;;;;;3.70;1.45;;;;;;;19.46;44.06;100695.75;5002404;28;20404;-84
2022/07/10 09:29:56;;;;;;;3.70;1.00;;;;;;;19.33;44.59;100690.91;4988300;28;20096;-83
2022/07/10 09:32:23;;;;;;;5.40;1.30;;;;;;;19.25;43.93;100697.16;5002813;28;20658;-83
2022/07/10 09:37:41;;;;;;;5.88;1.30;;;;;;;19.37;44.06;100689.56;4983655;28;20048;-83
2022/07/10 09:40:08;;;;;;;2.78;0.90;;;;;;;19.42;43.55;100689.88;4996752;28;20126;-83
2022/07/10 09:42:40;;;;;;;1.67;1.10;;;;;;;19.41;43.04;100687.34;5045286;28;20053;-83
2022/07/10 09:45:12;;;;;;;4.03;1.10;;;;;;;19.58;43.58;100682.75;5000334;28;20071;-83
2022/07/10 09:47:39;;;;;;;;;;;;;;;19.65;42.64;100689.16;5005829;28;20391;-83
2022/07/10 09:50:36;;;;;;;5.85;1.50;;;;;;;19.71;42.32;100688.47;5048331;28;19928;-83
2022/07/10 09:53:04;;;;;;;3.40;0.90;;;;;;;19.74;42.82;100698.88;4957050;28;20490;-82
2022/07/10 09:55:36;;;;;;;2.50;1.05;;;;;;;19.51;42.47;100688.00;5011481;28;20072;-84
2022/07/10 09:58:05;;;;;;;3.30;1.02;;;;;;;19.36;43.40;100684.34;5028948;28;20042;-83
2022/07/10 10:00:34;;;;;;;5.07;1.27;;;;;;;19.26;43.85;100690.78;4989883;28;20053;-83
2022/07/10 10:03:05;;;;;;;4.72;1.00;;;;;;;19.14;43.80;100702.91;5011701;28;20151;-83
2022/07/10 10:05:44;;;;;;;2.65;1.20;;;;;;;19.12;43.61;100680.69;5018216;28;20508;-82
2022/07/10 10:08:13;;;;;;;5.22;1.17;;;;;;;19.36;44.00;100697.81;5012920;28;20236;-83
2022/07/10 10:10:47;;;;;;;2.25;0.98;;;;;;;19.35;43.45;100685.38;5011198;28;20484;-83
2022/07/10 10:13:27;;;;;;;3.38;0.95;;;;;;;19.33;42.70;100680.13;5029993;28;20491;-83
2022/07/10 10:15:55;;;;;;;4.53;1.27;;;;;;;19.39;43.36;100676.78;5003477;28;20488;-83
2022/07/10 10:18:23;;;;;;;2.03;1.02;;;;;;;19.34;43.12;100676.44;5014201;28;20044;-83
2022/07/10 10:20:55;;;;;;;3.53;1.05;;;;;;;19.37;42.86;100684.19;5027906;28;20485;-83
2022/07/10 10:23:24;;;;;;;2.15;1.20;;;;;;;19.42;43.48;100684.50;4959071;28;20048;-83
2022/07/10 10:25:54;;;;;;;3.90;1.50;;;;;;;19.51;43.41;100674.53;5043605;28;20046;-82
2022/07/10 10:28:23;;;;;;;3.72;0.90;;;;;;;19.41;42.91;100676.56;5026744;28;20702;-84
2022/07/10 10:30:55;;;;;;;4.18;0.95;;;;;;;19.40;42.25;100674.91;5048658;28;20459;-83
2022/07/10 10:33:31;;;;;;;4.00;0.90;;;;;;;19.22;41.88;100675.13;5041242;28;20411;-84
2022/07/10 10:35:59;;;;;;;5.30;1.15;;;;;;;19.21;42.46;100673.44;5018174;28;20041;-83
2022/07/10 10:38:45;;;;;;;4.70;1.13;;;;;;;19.16;41.75;100675.78;4999939;28;20056;-84
2022/07/10 10:41:41;;;;;;;2.90;0.85;;;;;;;19.35;41.89;100675.41;5000767;28;20097;-83
2022/07/10 10:44:15;;;;;;;3.72;1.40;;;;;;;19.55;41.93;100666.97;4944068;28;20041;-83
2022/07/10 10:46:56;;;;;;;2.83;1.10;;;;;;;19.60;41.57;100680.75;5015888;28;20504;-83
2022/07/10 10:49:25;;;;;;;1.67;0.80;;;;;;;19.53;41.08;100675.19;5020646;28;20053;-83
2022/07/10 10:52:04;;;;;;;2.58;1.20;;;;;;;19.43;41.18;100667.31;5009284;28;20374;-83
2022/07/10 10:54:51;;;;;;;2.38;0.68;;;;;;;19.60;41.28;100676.19;5007392;28;20039;-84
2022/07/10 10:57:18;;;;;;;2.70;0.88;;;;;;;19.82;41.90;100652.19;5004401;28;20471;-84
2022/07/10 10:59:49;;;;;;;3.10;0.70;;;;;;;19.76;41.60;100663.69;5032995;28;20091;-83
2022/07/10 11:02:24;;;;;;;1.52;0.80;;;;;;;19.85;40.72;100659.97;5010061;28;20323;-84
2022/07/10 11:05:13;;;;;;;2.90;0.85;;;;;;;19.70;40.47;100666.06;5024369;28;20092;-83
2022/07/10 11:07:59;;;;;;;5.18;1.55;;;;;;;19.73;40.95;100654.09;4987523;28;20540;-84
2022/07/10 11:10:30;;;;;;;2.90;0.85;;;;;;;19.95;40.76;100657.88;5033474;28;20048;-83
2022/07/10 11:13:00;;;;;;;3.30;0.88;;;;;;;19.90;40.69;100647.63;5021524;28;20069;-83
2022/07/10 11:15:36;;;;;;;1.75;0.73;;;;;;;20.06;41.29;100643.16;5029265;28;20098;-83
2022/07/10 11:18:08;;;;;;;6.75;1.27;;;;;;;20.09;40.72;100651.72;5006311;28;20102;-84
2022/07/10 11:20:36;;;;;;;4.57;1.10;;;;;;;20.10;40.88;100647.19;5014097;28;20050;-83
2022/07/10 11:23:29;;;;;;;5.32;0.95;;;;;;;19.98;40.09;100664.78;5019469;28;20408;-83
2022/07/10 11:26:10;;;;;;;4.45;0.98;;;;;;;20.00;39.92;100651.94;4990413;28;20041;-84
2022/07/10 11:28:53;;;;;;;3.78;1.10;;;;;;;20.11;40.46;100646.16;4993805;28;20125;-83
2022/07/10 11:31:24;;;;;;;2.85;0.80;;;;;;;20.00;40.79;100652.81;5017013;28;20434;-84
2022/07/10 11:33:54;;;;;;;3.83;1.17;;;;;;;19.86;41.09;100659.75;4997583;28;20056;-84
2022/07/10 11:36:28;;;;;;;2.05;1.05;;;;;;;19.98;41.43;100660.22;5021319;28;20055;-83
2022/07/10 11:39:04;;;;;;;4.82;1.00;;;;;;;20.06;39.82;100657.47;4993007;28;20041;-84
2022/07/10 11:41:31;;;;;;;2.28;0.80;;;;;;;20.26;40.28;100649.75;5028685;28;20036;-83
2022/07/10 11:44:00;;;;;;;6.30;1.13;;;;;;;20.36;40.37;100647.66;5020158;28;20044;-83
2022/07/10 11:46:32;;;;;;;2.13;1.00;;;;;;;20.32;39.76;100649.03;5031425;28;20412;-84
2022/07/10 11:49:04;;;;;;;2.70;0.70;;;;;;;20.39;39.85;100646.47;5035865;28;20127;-84
2022/07/10 11:51:34;;;;;;;5.35;0.90;;;;;;;20.34;39.57;100648.88;5044837;28;20043;-84
2022/07/10 11:54:03;;;;;;;3.28;1.10;;;;;;;20.39;38.83;100649.16;5005836;28;20061;-83